sensor_id;sensor_type;location;lat;lon;timestamp;P1;durP1;ratioP1;P2;durP2;ratioP2
11386;SDS011;5748;53.102;8.456;2024-02-26T00:01:19;5.70;;;5.20;;
11386;SDS011;5748;53.102;8.456;2024-02-26T00:03:46;5.63;;;5.13;;
11386;SDS011;5748;53.102;8.456;2024-02-26T00:06:13;5.57;;;5.17;;
11386;SDS011;5748;53.102;8.456;2024-02-26T00:08:40;5.70;;;5.30;;
11386;SDS011;5748;53.102;8.456;2024-02-26T00:11:07;5.63;;;5.13;;
11386;SDS011;5748;53.102;8.456;2024-02-26T00:13:34;5.07;;;4.67;;
11386;SDS011;5748;53.102;8.456;2024-02-26T00:16:03;5.33;;;4.90;;
11386;SDS011;5748;53.102;8.456;2024-02-26T00:18:31;4.93;;;4.53;;
11386;SDS011;5748;53.102;8.456;2024-02-26T00:20:58;4.80;;;4.40;;
11386;SDS011;5748;53.102;8.456;2024-02-26T00:23:25;5.30;;;4.90;;
11386;SDS011;5748;53.102;8.456;2024-02-26T00:25:53;5.20;;;4.80;;
11386;SDS011;5748;53.102;8.456;2024-02-26T00:28:20;5.00;;;4.60;;
11386;SDS011;5748;53.102;8.456;2024-02-26T00:30:47;5.63;;;5.13;;
11386;SDS011;5748;53.102;8.456;2024-02-26T00:33:16;5.23;;;4.83;;
11386;SDS011;5748;53.102;8.456;2024-02-26T00:35:43;4.93;;;4.53;;
11386;SDS011;5748;53.102;8.456;2024-02-26T00:38:10;5.00;;;4.60;;
11386;SDS011;5748;53.102;8.456;2024-02-26T00:40:37;5.30;;;4.90;;
11386;SDS011;5748;53.102;8.456;2024-02-26T00:43:05;5.17;;;4.77;;
11386;SDS011;5748;53.102;8.456;2024-02-26T00:45:32;5.13;;;4.73;;
11386;SDS011;5748;53.102;8.456;2024-02-26T00:48:00;4.90;;;4.50;;
11386;SDS011;5748;53.102;8.456;2024-02-26T00:50:31;5.07;;;4.67;;
11386;SDS011;5748;53.102;8.456;2024-02-26T00:52:58;5.27;;;4.87;;
11386;SDS011;5748;53.102;8.456;2024-02-26T00:55:25;5.17;;;4.77;;
11386;SDS011;5748;53.102;8.456;2024-02-26T00:57:52;4.93;;;4.53;;
11386;SDS011;5748;53.102;8.456;2024-02-26T01:00:19;5.33;;;4.83;;
11386;SDS011;5748;53.102;8.456;2024-02-26T01:02:47;4.53;;;4.23;;
11386;SDS011;5748;53.102;8.456;2024-02-26T01:05:14;5.00;;;4.60;;
11386;SDS011;5748;53.102;8.456;2024-02-26T01:07:42;5.30;;;4.90;;
11386;SDS011;5748;53.102;8.456;2024-02-26T01:10:10;5.00;;;4.60;;
11386;SDS011;5748;53.102;8.456;2024-02-26T01:12:37;4.90;;;4.50;;
11386;SDS011;5748;53.102;8.456;2024-02-26T01:15:04;5.00;;;4.60;;
11386;SDS011;5748;53.102;8.456;2024-02-26T01:17:32;5.20;;;4.80;;
11386;SDS011;5748;53.102;8.456;2024-02-26T01:19:59;4.87;;;4.47;;
11386;SDS011;5748;53.102;8.456;2024-02-26T01:22:26;4.47;;;4.17;;
11386;SDS011;5748;53.102;8.456;2024-02-26T01:24:54;4.43;;;4.13;;
11386;SDS011;5748;53.102;8.456;2024-02-26T01:27:21;4.77;;;4.37;;
11386;SDS011;5748;53.102;8.456;2024-02-26T01:29:51;4.77;;;4.37;;
11386;SDS011;5748;53.102;8.456;2024-02-26T01:32:18;4.53;;;4.23;;
11386;SDS011;5748;53.102;8.456;2024-02-26T01:34:45;4.87;;;4.47;;
11386;SDS011;5748;53.102;8.456;2024-02-26T01:37:12;4.83;;;4.43;;
11386;SDS011;5748;53.102;8.456;2024-02-26T01:39:39;5.10;;;4.70;;
11386;SDS011;5748;53.102;8.456;2024-02-26T01:42:08;5.07;;;4.67;;
11386;SDS011;5748;53.102;8.456;2024-02-26T01:44:35;4.77;;;4.37;;
11386;SDS011;5748;53.102;8.456;2024-02-26T01:47:03;4.83;;;4.43;;
11386;SDS011;5748;53.102;8.456;2024-02-26T01:49:32;4.70;;;4.40;;
11386;SDS011;5748;53.102;8.456;2024-02-26T01:52:00;5.13;;;4.73;;
11386;SDS011;5748;53.102;8.456;2024-02-26T01:54:27;5.00;;;4.60;;
11386;SDS011;5748;53.102;8.456;2024-02-26T01:56:56;5.07;;;4.67;;
11386;SDS011;5748;53.102;8.456;2024-02-26T01:59:25;4.77;;;4.40;;
11386;SDS011;5748;53.102;8.456;2024-02-26T02:01:54;4.50;;;4.10;;
11386;SDS011;5748;53.102;8.456;2024-02-26T02:04:24;4.67;;;4.27;;
11386;SDS011;5748;53.102;8.456;2024-02-26T02:06:51;4.33;;;3.93;;
11386;SDS011;5748;53.102;8.456;2024-02-26T02:09:19;4.43;;;4.13;;
11386;SDS011;5748;53.102;8.456;2024-02-26T02:11:48;4.13;;;3.83;;
11386;SDS011;5748;53.102;8.456;2024-02-26T02:14:15;4.50;;;4.20;;
11386;SDS011;5748;53.102;8.456;2024-02-26T02:16:43;3.97;;;3.67;;
11386;SDS011;5748;53.102;8.456;2024-02-26T02:19:10;4.47;;;4.13;;
11386;SDS011;5748;53.102;8.456;2024-02-26T02:21:38;4.77;;;4.37;;
11386;SDS011;5748;53.102;8.456;2024-02-26T02:24:06;4.70;;;4.33;;
11386;SDS011;5748;53.102;8.456;2024-02-26T02:26:33;4.50;;;4.20;;
11386;SDS011;5748;53.102;8.456;2024-02-26T02:29:00;4.13;;;3.83;;
11386;SDS011;5748;53.102;8.456;2024-02-26T02:31:28;4.33;;;3.93;;
11386;SDS011;5748;53.102;8.456;2024-02-26T02:33:55;4.30;;;4.00;;
11386;SDS011;5748;53.102;8.456;2024-02-26T02:36:22;4.30;;;4.00;;
11386;SDS011;5748;53.102;8.456;2024-02-26T02:38:51;4.47;;;4.07;;
11386;SDS011;5748;53.102;8.456;2024-02-26T02:41:18;4.50;;;4.20;;
11386;SDS011;5748;53.102;8.456;2024-02-26T02:43:46;4.30;;;4.00;;
11386;SDS011;5748;53.102;8.456;2024-02-26T02:46:13;4.37;;;4.07;;
11386;SDS011;5748;53.102;8.456;2024-02-26T02:48:41;4.43;;;4.13;;
11386;SDS011;5748;53.102;8.456;2024-02-26T02:51:08;4.57;;;4.23;;
11386;SDS011;5748;53.102;8.456;2024-02-26T02:53:36;4.37;;;4.07;;
11386;SDS011;5748;53.102;8.456;2024-02-26T02:56:04;4.73;;;4.33;;
11386;SDS011;5748;53.102;8.456;2024-02-26T02:58:32;5.10;;;4.70;;
11386;SDS011;5748;53.102;8.456;2024-02-26T03:00:59;4.63;;;4.33;;
11386;SDS011;5748;53.102;8.456;2024-02-26T03:03:26;4.47;;;4.17;;
11386;SDS011;5748;53.102;8.456;2024-02-26T03:05:54;4.50;;;4.20;;
11386;SDS011;5748;53.102;8.456;2024-02-26T03:08:21;4.63;;;4.33;;
11386;SDS011;5748;53.102;8.456;2024-02-26T03:10:49;4.83;;;4.43;;
11386;SDS011;5748;53.102;8.456;2024-02-26T03:13:17;4.63;;;4.23;;
11386;SDS011;5748;53.102;8.456;2024-02-26T03:15:44;4.70;;;4.30;;
11386;SDS011;5748;53.102;8.456;2024-02-26T03:18:11;4.60;;;4.20;;
11386;SDS011;5748;53.102;8.456;2024-02-26T03:20:38;4.47;;;4.17;;
11386;SDS011;5748;53.102;8.456;2024-02-26T03:23:05;4.63;;;4.23;;
11386;SDS011;5748;53.102;8.456;2024-02-26T03:25:34;4.93;;;4.53;;
11386;SDS011;5748;53.102;8.456;2024-02-26T03:28:01;4.97;;;4.60;;
11386;SDS011;5748;53.102;8.456;2024-02-26T03:30:30;4.80;;;4.40;;
11386;SDS011;5748;53.102;8.456;2024-02-26T03:32:57;4.80;;;4.40;;
11386;SDS011;5748;53.102;8.456;2024-02-26T03:35:24;4.83;;;4.43;;
11386;SDS011;5748;53.102;8.456;2024-02-26T03:37:51;4.13;;;3.83;;
11386;SDS011;5748;53.102;8.456;2024-02-26T03:40:18;4.80;;;4.40;;
11386;SDS011;5748;53.102;8.456;2024-02-26T03:42:45;4.90;;;4.50;;
11386;SDS011;5748;53.102;8.456;2024-02-26T03:45:12;4.77;;;4.37;;
11386;SDS011;5748;53.102;8.456;2024-02-26T03:47:40;4.50;;;4.20;;
11386;SDS011;5748;53.102;8.456;2024-02-26T03:50:08;4.80;;;4.40;;
11386;SDS011;5748;53.102;8.456;2024-02-26T03:52:35;4.30;;;4.00;;
11386;SDS011;5748;53.102;8.456;2024-02-26T03:55:02;4.57;;;4.23;;
11386;SDS011;5748;53.102;8.456;2024-02-26T03:57:30;4.53;;;4.13;;
11386;SDS011;5748;53.102;8.456;2024-02-26T03:59:57;4.13;;;3.83;;
11386;SDS011;5748;53.102;8.456;2024-02-26T04:02:24;4.63;;;4.23;;
11386;SDS011;5748;53.102;8.456;2024-02-26T04:04:53;4.93;;;4.53;;
11386;SDS011;5748;53.102;8.456;2024-02-26T04:07:20;4.30;;;4.00;;
11386;SDS011;5748;53.102;8.456;2024-02-26T04:09:47;4.70;;;4.30;;
11386;SDS011;5748;53.102;8.456;2024-02-26T04:12:14;4.73;;;4.33;;
11386;SDS011;5748;53.102;8.456;2024-02-26T04:14:41;4.50;;;4.20;;
11386;SDS011;5748;53.102;8.456;2024-02-26T04:17:08;5.17;;;4.77;;
11386;SDS011;5748;53.102;8.456;2024-02-26T04:19:36;4.93;;;4.53;;
11386;SDS011;5748;53.102;8.456;2024-02-26T04:22:04;4.90;;;4.50;;
11386;SDS011;5748;53.102;8.456;2024-02-26T04:24:31;4.80;;;4.40;;
11386;SDS011;5748;53.102;8.456;2024-02-26T04:26:58;5.17;;;4.77;;
11386;SDS011;5748;53.102;8.456;2024-02-26T04:29:25;4.57;;;4.23;;
11386;SDS011;5748;53.102;8.456;2024-02-26T04:31:51;5.10;;;4.70;;
11386;SDS011;5748;53.102;8.456;2024-02-26T04:34:18;5.23;;;4.83;;
11386;SDS011;5748;53.102;8.456;2024-02-26T04:36:45;5.00;;;4.60;;
11386;SDS011;5748;53.102;8.456;2024-02-26T04:39:14;4.93;;;4.53;;
11386;SDS011;5748;53.102;8.456;2024-02-26T04:41:41;5.00;;;4.60;;
11386;SDS011;5748;53.102;8.456;2024-02-26T04:44:08;4.90;;;4.57;;
11386;SDS011;5748;53.102;8.456;2024-02-26T04:46:35;4.87;;;4.47;;
11386;SDS011;5748;53.102;8.456;2024-02-26T04:49:02;4.70;;;4.30;;
11386;SDS011;5748;53.102;8.456;2024-02-26T04:51:29;5.03;;;4.63;;
11386;SDS011;5748;53.102;8.456;2024-02-26T04:53:56;4.80;;;4.40;;
11386;SDS011;5748;53.102;8.456;2024-02-26T04:56:25;4.90;;;4.50;;
11386;SDS011;5748;53.102;8.456;2024-02-26T04:58:52;4.80;;;4.40;;
11386;SDS011;5748;53.102;8.456;2024-02-26T05:01:19;4.53;;;4.17;;
11386;SDS011;5748;53.102;8.456;2024-02-26T05:03:46;5.37;;;4.87;;
11386;SDS011;5748;53.102;8.456;2024-02-26T05:06:14;4.73;;;4.33;;
11386;SDS011;5748;53.102;8.456;2024-02-26T05:08:41;4.43;;;4.03;;
11386;SDS011;5748;53.102;8.456;2024-02-26T05:11:09;4.47;;;4.17;;
11386;SDS011;5748;53.102;8.456;2024-02-26T05:13:38;4.40;;;4.10;;
11386;SDS011;5748;53.102;8.456;2024-02-26T05:16:05;4.70;;;4.30;;
11386;SDS011;5748;53.102;8.456;2024-02-26T05:18:32;4.53;;;4.23;;
11386;SDS011;5748;53.102;8.456;2024-02-26T05:20:59;4.43;;;4.13;;
11386;SDS011;5748;53.102;8.456;2024-02-26T05:23:26;4.77;;;4.37;;
11386;SDS011;5748;53.102;8.456;2024-02-26T05:25:53;4.67;;;4.27;;
11386;SDS011;5748;53.102;8.456;2024-02-26T05:28:20;4.93;;;4.53;;
11386;SDS011;5748;53.102;8.456;2024-02-26T05:30:48;5.30;;;4.90;;
11386;SDS011;5748;53.102;8.456;2024-02-26T05:33:15;5.27;;;4.87;;
11386;SDS011;5748;53.102;8.456;2024-02-26T05:35:42;5.40;;;4.93;;
11386;SDS011;5748;53.102;8.456;2024-02-26T05:38:09;5.33;;;4.93;;
11386;SDS011;5748;53.102;8.456;2024-02-26T05:40:36;5.37;;;4.93;;
11386;SDS011;5748;53.102;8.456;2024-02-26T05:43:03;5.53;;;5.03;;
11386;SDS011;5748;53.102;8.456;2024-02-26T05:45:31;6.10;;;5.60;;
11386;SDS011;5748;53.102;8.456;2024-02-26T05:47:59;5.83;;;5.33;;
11386;SDS011;5748;53.102;8.456;2024-02-26T05:50:26;5.93;;;5.43;;
11386;SDS011;5748;53.102;8.456;2024-02-26T05:52:53;6.83;;;6.23;;
11386;SDS011;5748;53.102;8.456;2024-02-26T05:55:20;7.20;;;6.60;;
11386;SDS011;5748;53.102;8.456;2024-02-26T05:57:47;7.23;;;6.67;;
11386;SDS011;5748;53.102;8.456;2024-02-26T06:00:14;7.43;;;6.73;;
11386;SDS011;5748;53.102;8.456;2024-02-26T06:02:42;8.03;;;7.33;;
11386;SDS011;5748;53.102;8.456;2024-02-26T06:05:10;8.53;;;7.73;;
11386;SDS011;5748;53.102;8.456;2024-02-26T06:07:37;13.13;;;11.93;;
11386;SDS011;5748;53.102;8.456;2024-02-26T06:10:05;10.43;;;9.43;;
11386;SDS011;5748;53.102;8.456;2024-02-26T06:12:34;8.90;;;8.10;;
11386;SDS011;5748;53.102;8.456;2024-02-26T06:15:02;9.17;;;8.37;;
11386;SDS011;5748;53.102;8.456;2024-02-26T06:17:29;9.17;;;8.37;;
11386;SDS011;5748;53.102;8.456;2024-02-26T06:19:56;8.53;;;7.73;;
11386;SDS011;5748;53.102;8.456;2024-02-26T06:22:26;9.10;;;8.30;;
11386;SDS011;5748;53.102;8.456;2024-02-26T06:24:53;8.63;;;7.83;;
11386;SDS011;5748;53.102;8.456;2024-02-26T06:27:20;8.90;;;8.03;;
11386;SDS011;5748;53.102;8.456;2024-02-26T06:29:47;8.53;;;7.73;;
11386;SDS011;5748;53.102;8.456;2024-02-26T06:32:14;9.30;;;8.50;;
11386;SDS011;5748;53.102;8.456;2024-02-26T06:34:41;8.70;;;7.90;;
11386;SDS011;5748;53.102;8.456;2024-02-26T06:37:08;8.87;;;8.17;;
11386;SDS011;5748;53.102;8.456;2024-02-26T06:39:37;7.70;;;7.00;;
11386;SDS011;5748;53.102;8.456;2024-02-26T06:42:04;7.67;;;6.97;;
11386;SDS011;5748;53.102;8.456;2024-02-26T06:44:31;7.67;;;6.97;;
11386;SDS011;5748;53.102;8.456;2024-02-26T06:46:59;7.37;;;6.77;;
11386;SDS011;5748;53.102;8.456;2024-02-26T06:49:27;8.20;;;7.50;;
11386;SDS011;5748;53.102;8.456;2024-02-26T06:51:55;8.30;;;7.60;;
11386;SDS011;5748;53.102;8.456;2024-02-26T06:54:22;7.67;;;6.97;;
11386;SDS011;5748;53.102;8.456;2024-02-26T06:56:50;7.73;;;7.03;;
11386;SDS011;5748;53.102;8.456;2024-02-26T06:59:17;8.57;;;7.77;;
11386;SDS011;5748;53.102;8.456;2024-02-26T07:01:45;7.90;;;7.20;;
11386;SDS011;5748;53.102;8.456;2024-02-26T07:04:12;7.33;;;6.73;;
11386;SDS011;5748;53.102;8.456;2024-02-26T07:06:39;7.10;;;6.50;;
11386;SDS011;5748;53.102;8.456;2024-02-26T07:09:06;8.03;;;7.33;;
11386;SDS011;5748;53.102;8.456;2024-02-26T07:11:33;7.30;;;6.60;;
11386;SDS011;5748;53.102;8.456;2024-02-26T07:14:01;8.33;;;7.53;;
11386;SDS011;5748;53.102;8.456;2024-02-26T07:16:29;7.90;;;7.20;;
11386;SDS011;5748;53.102;8.456;2024-02-26T07:18:56;8.13;;;7.33;;
11386;SDS011;5748;53.102;8.456;2024-02-26T07:21:23;7.23;;;6.63;;
11386;SDS011;5748;53.102;8.456;2024-02-26T07:23:50;7.97;;;7.30;;
11386;SDS011;5748;53.102;8.456;2024-02-26T07:26:18;7.43;;;6.73;;
11386;SDS011;5748;53.102;8.456;2024-02-26T07:28:45;7.53;;;6.83;;
11386;SDS011;5748;53.102;8.456;2024-02-26T07:31:14;6.97;;;6.27;;
11386;SDS011;5748;53.102;8.456;2024-02-26T07:33:41;6.90;;;6.30;;
11386;SDS011;5748;53.102;8.456;2024-02-26T07:36:08;6.70;;;6.10;;
11386;SDS011;5748;53.102;8.456;2024-02-26T07:38:35;6.57;;;5.97;;
11386;SDS011;5748;53.102;8.456;2024-02-26T07:41:02;6.77;;;6.17;;
11386;SDS011;5748;53.102;8.456;2024-02-26T07:43:29;6.73;;;6.13;;
11386;SDS011;5748;53.102;8.456;2024-02-26T07:45:57;6.57;;;5.97;;
11386;SDS011;5748;53.102;8.456;2024-02-26T07:48:25;6.20;;;5.60;;
11386;SDS011;5748;53.102;8.456;2024-02-26T07:50:52;6.90;;;6.20;;
11386;SDS011;5748;53.102;8.456;2024-02-26T07:53:19;6.73;;;6.13;;
11386;SDS011;5748;53.102;8.456;2024-02-26T07:55:46;6.43;;;5.83;;
11386;SDS011;5748;53.102;8.456;2024-02-26T07:58:13;7.07;;;6.47;;
11386;SDS011;5748;53.102;8.456;2024-02-26T08:00:40;6.33;;;5.80;;
11386;SDS011;5748;53.102;8.456;2024-02-26T08:03:08;6.30;;;5.77;;
11386;SDS011;5748;53.102;8.456;2024-02-26T08:05:37;6.10;;;5.60;;
11386;SDS011;5748;53.102;8.456;2024-02-26T08:08:05;6.23;;;5.67;;
11386;SDS011;5748;53.102;8.456;2024-02-26T08:10:33;6.37;;;5.77;;
11386;SDS011;5748;53.102;8.456;2024-02-26T08:13:00;5.30;;;4.80;;
11386;SDS011;5748;53.102;8.456;2024-02-26T08:15:31;5.73;;;5.17;;
11386;SDS011;5748;53.102;8.456;2024-02-26T08:17:59;5.50;;;5.00;;
11386;SDS011;5748;53.102;8.456;2024-02-26T08:20:27;4.87;;;4.47;;
11386;SDS011;5748;53.102;8.456;2024-02-26T08:22:56;4.57;;;4.17;;
11386;SDS011;5748;53.102;8.456;2024-02-26T08:25:23;4.83;;;4.43;;
11386;SDS011;5748;53.102;8.456;2024-02-26T08:27:50;4.67;;;4.27;;
11386;SDS011;5748;53.102;8.456;2024-02-26T08:30:17;5.17;;;4.77;;
11386;SDS011;5748;53.102;8.456;2024-02-26T08:32:45;4.83;;;4.43;;
11386;SDS011;5748;53.102;8.456;2024-02-26T08:35:13;4.97;;;4.57;;
11386;SDS011;5748;53.102;8.456;2024-02-26T08:37:43;5.17;;;4.77;;
11386;SDS011;5748;53.102;8.456;2024-02-26T08:40:12;5.50;;;5.00;;
11386;SDS011;5748;53.102;8.456;2024-02-26T08:42:40;5.07;;;4.67;;
11386;SDS011;5748;53.102;8.456;2024-02-26T08:45:07;4.77;;;4.37;;
11386;SDS011;5748;53.102;8.456;2024-02-26T08:47:36;5.83;;;5.33;;
11386;SDS011;5748;53.102;8.456;2024-02-26T08:50:04;4.83;;;4.43;;
11386;SDS011;5748;53.102;8.456;2024-02-26T08:52:32;4.80;;;4.40;;
11386;SDS011;5748;53.102;8.456;2024-02-26T08:54:59;5.00;;;4.60;;
11386;SDS011;5748;53.102;8.456;2024-02-26T08:57:27;5.20;;;4.80;;
11386;SDS011;5748;53.102;8.456;2024-02-26T08:59:54;5.77;;;5.27;;
11386;SDS011;5748;53.102;8.456;2024-02-26T09:02:21;5.00;;;4.60;;
11386;SDS011;5748;53.102;8.456;2024-02-26T09:04:48;4.77;;;4.37;;
11386;SDS011;5748;53.102;8.456;2024-02-26T09:07:16;5.10;;;4.60;;
11386;SDS011;5748;53.102;8.456;2024-02-26T09:09:43;4.40;;;4.00;;
11386;SDS011;5748;53.102;8.456;2024-02-26T09:12:10;4.80;;;4.40;;
11386;SDS011;5748;53.102;8.456;2024-02-26T09:14:38;4.50;;;4.10;;
11386;SDS011;5748;53.102;8.456;2024-02-26T09:17:05;4.40;;;4.00;;
11386;SDS011;5748;53.102;8.456;2024-02-26T09:19:32;5.57;;;5.07;;
11386;SDS011;5748;53.102;8.456;2024-02-26T09:21:59;4.67;;;4.27;;
11386;SDS011;5748;53.102;8.456;2024-02-26T09:24:26;5.00;;;4.60;;
11386;SDS011;5748;53.102;8.456;2024-02-26T09:26:53;4.70;;;4.30;;
11386;SDS011;5748;53.102;8.456;2024-02-26T09:29:21;4.73;;;4.33;;
11386;SDS011;5748;53.102;8.456;2024-02-26T09:31:49;4.70;;;4.30;;
11386;SDS011;5748;53.102;8.456;2024-02-26T09:34:16;4.73;;;4.23;;
11386;SDS011;5748;53.102;8.456;2024-02-26T09:36:43;4.70;;;4.30;;
11386;SDS011;5748;53.102;8.456;2024-02-26T09:39:10;4.27;;;3.90;;
11386;SDS011;5748;53.102;8.456;2024-02-26T09:41:39;4.33;;;3.93;;
11386;SDS011;5748;53.102;8.456;2024-02-26T09:44:06;4.80;;;4.40;;
11386;SDS011;5748;53.102;8.456;2024-02-26T09:46:34;4.40;;;4.00;;
11386;SDS011;5748;53.102;8.456;2024-02-26T09:49:03;4.30;;;3.90;;
11386;SDS011;5748;53.102;8.456;2024-02-26T09:51:30;4.70;;;4.30;;
11386;SDS011;5748;53.102;8.456;2024-02-26T09:53:58;4.33;;;3.93;;
11386;SDS011;5748;53.102;8.456;2024-02-26T09:56:27;4.20;;;3.90;;
11386;SDS011;5748;53.102;8.456;2024-02-26T09:58:54;4.00;;;3.70;;
11386;SDS011;5748;53.102;8.456;2024-02-26T10:01:23;4.30;;;3.90;;
11386;SDS011;5748;53.102;8.456;2024-02-26T10:03:51;3.87;;;3.57;;
11386;SDS011;5748;53.102;8.456;2024-02-26T10:06:23;4.03;;;3.73;;
11386;SDS011;5748;53.102;8.456;2024-02-26T10:08:50;4.00;;;3.60;;
11386;SDS011;5748;53.102;8.456;2024-02-26T10:11:19;4.00;;;3.60;;
11386;SDS011;5748;53.102;8.456;2024-02-26T10:13:48;3.60;;;3.30;;
11386;SDS011;5748;53.102;8.456;2024-02-26T10:16:15;4.07;;;3.67;;
11386;SDS011;5748;53.102;8.456;2024-02-26T10:18:46;3.60;;;3.30;;
11386;SDS011;5748;53.102;8.456;2024-02-26T10:21:15;3.70;;;3.37;;
11386;SDS011;5748;53.102;8.456;2024-02-26T10:23:45;4.10;;;3.70;;
11386;SDS011;5748;53.102;8.456;2024-02-26T10:26:13;3.80;;;3.50;;
11386;SDS011;5748;53.102;8.456;2024-02-26T10:28:41;3.77;;;3.47;;
11386;SDS011;5748;53.102;8.456;2024-02-26T10:31:10;3.70;;;3.40;;
11386;SDS011;5748;53.102;8.456;2024-02-26T10:33:37;3.60;;;3.30;;
11386;SDS011;5748;53.102;8.456;2024-02-26T10:36:05;3.53;;;3.23;;
11386;SDS011;5748;53.102;8.456;2024-02-26T10:38:34;3.77;;;3.37;;
11386;SDS011;5748;53.102;8.456;2024-02-26T10:41:04;4.27;;;3.87;;
11386;SDS011;5748;53.102;8.456;2024-02-26T10:43:33;4.17;;;3.77;;
11386;SDS011;5748;53.102;8.456;2024-02-26T10:46:00;3.43;;;3.13;;
11386;SDS011;5748;53.102;8.456;2024-02-26T10:48:27;3.40;;;3.10;;
11386;SDS011;5748;53.102;8.456;2024-02-26T10:50:54;3.70;;;3.40;;
11386;SDS011;5748;53.102;8.456;2024-02-26T10:53:23;3.60;;;3.30;;
11386;SDS011;5748;53.102;8.456;2024-02-26T10:55:57;3.23;;;2.97;;
11386;SDS011;5748;53.102;8.456;2024-02-26T10:58:30;3.60;;;3.30;;
11386;SDS011;5748;53.102;8.456;2024-02-26T11:00:58;3.33;;;3.03;;
11386;SDS011;5748;53.102;8.456;2024-02-26T11:03:25;3.60;;;3.30;;
11386;SDS011;5748;53.102;8.456;2024-02-26T11:05:57;3.37;;;3.07;;
11386;SDS011;5748;53.102;8.456;2024-02-26T11:08:25;3.70;;;3.40;;
11386;SDS011;5748;53.102;8.456;2024-02-26T11:10:53;3.33;;;3.03;;
11386;SDS011;5748;53.102;8.456;2024-02-26T11:13:21;3.30;;;3.00;;
11386;SDS011;5748;53.102;8.456;2024-02-26T11:15:52;3.50;;;3.20;;
11386;SDS011;5748;53.102;8.456;2024-02-26T11:18:22;3.27;;;2.90;;
11386;SDS011;5748;53.102;8.456;2024-02-26T11:20:52;3.33;;;3.03;;
11386;SDS011;5748;53.102;8.456;2024-02-26T11:23:22;3.20;;;2.90;;
11386;SDS011;5748;53.102;8.456;2024-02-26T11:25:49;3.47;;;3.17;;
11386;SDS011;5748;53.102;8.456;2024-02-26T11:28:18;2.87;;;2.67;;
11386;SDS011;5748;53.102;8.456;2024-02-26T11:30:47;3.27;;;2.97;;
11386;SDS011;5748;53.102;8.456;2024-02-26T11:33:16;3.50;;;3.20;;
11386;SDS011;5748;53.102;8.456;2024-02-26T11:35:44;2.63;;;2.43;;
11386;SDS011;5748;53.102;8.456;2024-02-26T11:38:17;3.00;;;2.80;;
11386;SDS011;5748;53.102;8.456;2024-02-26T11:40:47;2.90;;;2.70;;
11386;SDS011;5748;53.102;8.456;2024-02-26T11:43:14;3.00;;;2.70;;
11386;SDS011;5748;53.102;8.456;2024-02-26T11:45:47;2.80;;;2.60;;
11386;SDS011;5748;53.102;8.456;2024-02-26T11:48:21;3.33;;;3.03;;
11386;SDS011;5748;53.102;8.456;2024-02-26T11:50:51;2.90;;;2.70;;
11386;SDS011;5748;53.102;8.456;2024-02-26T11:53:19;2.87;;;2.67;;
11386;SDS011;5748;53.102;8.456;2024-02-26T11:55:48;2.80;;;2.60;;
11386;SDS011;5748;53.102;8.456;2024-02-26T11:58:39;2.73;;;2.53;;
11386;SDS011;5748;53.102;8.456;2024-02-26T12:01:06;3.10;;;2.80;;
11386;SDS011;5748;53.102;8.456;2024-02-26T12:04:05;2.80;;;2.60;;
11386;SDS011;5748;53.102;8.456;2024-02-26T12:09:31;2.80;;;2.60;;
11386;SDS011;5748;53.102;8.456;2024-02-26T12:12:00;3.10;;;2.80;;
11386;SDS011;5748;53.102;8.456;2024-02-26T12:14:29;3.53;;;3.23;;
11386;SDS011;5748;53.102;8.456;2024-02-26T12:16:59;3.20;;;2.90;;
11386;SDS011;5748;53.102;8.456;2024-02-26T12:19:28;3.17;;;2.87;;
11386;SDS011;5748;53.102;8.456;2024-02-26T12:21:58;2.67;;;2.47;;
11386;SDS011;5748;53.102;8.456;2024-02-26T12:24:25;2.93;;;2.73;;
11386;SDS011;5748;53.102;8.456;2024-02-26T12:26:52;2.80;;;2.60;;
11386;SDS011;5748;53.102;8.456;2024-02-26T12:29:20;3.20;;;2.90;;
11386;SDS011;5748;53.102;8.456;2024-02-26T12:31:47;2.73;;;2.53;;
11386;SDS011;5748;53.102;8.456;2024-02-26T12:34:14;3.13;;;2.93;;
11386;SDS011;5748;53.102;8.456;2024-02-26T12:36:43;3.70;;;3.40;;
11386;SDS011;5748;53.102;8.456;2024-02-26T12:39:11;3.10;;;2.80;;
11386;SDS011;5748;53.102;8.456;2024-02-26T12:41:38;3.20;;;2.90;;
11386;SDS011;5748;53.102;8.456;2024-02-26T12:44:05;3.30;;;3.00;;
11386;SDS011;5748;53.102;8.456;2024-02-26T12:46:34;3.53;;;2.90;;
11386;SDS011;5748;53.102;8.456;2024-02-26T12:49:01;3.53;;;3.23;;
11386;SDS011;5748;53.102;8.456;2024-02-26T12:51:28;3.13;;;2.83;;
11386;SDS011;5748;53.102;8.456;2024-02-26T12:53:57;3.30;;;3.00;;
11386;SDS011;5748;53.102;8.456;2024-02-26T12:56:25;3.30;;;3.00;;
11386;SDS011;5748;53.102;8.456;2024-02-26T12:58:53;3.40;;;3.10;;
11386;SDS011;5748;53.102;8.456;2024-02-26T13:01:22;3.50;;;3.20;;
11386;SDS011;5748;53.102;8.456;2024-02-26T13:03:51;3.70;;;3.40;;
11386;SDS011;5748;53.102;8.456;2024-02-26T13:06:19;3.50;;;3.20;;
11386;SDS011;5748;53.102;8.456;2024-02-26T13:08:48;3.67;;;3.37;;
11386;SDS011;5748;53.102;8.456;2024-02-26T13:11:16;3.50;;;3.20;;
11386;SDS011;5748;53.102;8.456;2024-02-26T13:13:47;3.40;;;3.10;;
11386;SDS011;5748;53.102;8.456;2024-02-26T13:16:16;3.57;;;3.20;;
11386;SDS011;5748;53.102;8.456;2024-02-26T13:18:43;3.40;;;3.10;;
11386;SDS011;5748;53.102;8.456;2024-02-26T13:21:11;3.50;;;3.20;;
11386;SDS011;5748;53.102;8.456;2024-02-26T13:23:40;3.23;;;2.93;;
11386;SDS011;5748;53.102;8.456;2024-02-26T13:26:08;3.47;;;3.17;;
11386;SDS011;5748;53.102;8.456;2024-02-26T13:28:39;3.03;;;2.83;;
11386;SDS011;5748;53.102;8.456;2024-02-26T13:31:07;3.07;;;2.80;;
11386;SDS011;5748;53.102;8.456;2024-02-26T13:33:35;3.00;;;2.70;;
11386;SDS011;5748;53.102;8.456;2024-02-26T13:36:02;3.13;;;2.83;;
11386;SDS011;5748;53.102;8.456;2024-02-26T13:38:30;2.90;;;2.70;;
11386;SDS011;5748;53.102;8.456;2024-02-26T13:40:57;3.27;;;2.97;;
11386;SDS011;5748;53.102;8.456;2024-02-26T13:43:25;3.23;;;2.93;;
11386;SDS011;5748;53.102;8.456;2024-02-26T13:45:54;3.03;;;2.83;;
11386;SDS011;5748;53.102;8.456;2024-02-26T13:48:21;3.40;;;3.10;;
11386;SDS011;5748;53.102;8.456;2024-02-26T13:50:48;3.20;;;2.90;;
11386;SDS011;5748;53.102;8.456;2024-02-26T13:53:15;3.50;;;3.20;;
11386;SDS011;5748;53.102;8.456;2024-02-26T13:55:43;3.60;;;3.30;;
11386;SDS011;5748;53.102;8.456;2024-02-26T13:58:11;3.33;;;3.03;;
11386;SDS011;5748;53.102;8.456;2024-02-26T14:00:39;3.47;;;3.17;;
11386;SDS011;5748;53.102;8.456;2024-02-26T14:03:08;3.30;;;3.00;;
11386;SDS011;5748;53.102;8.456;2024-02-26T14:05:35;3.93;;;3.57;;
11386;SDS011;5748;53.102;8.456;2024-02-26T14:08:02;3.67;;;3.37;;
11386;SDS011;5748;53.102;8.456;2024-02-26T14:10:30;3.73;;;3.43;;
11386;SDS011;5748;53.102;8.456;2024-02-26T14:12:57;4.10;;;3.70;;
11386;SDS011;5748;53.102;8.456;2024-02-26T14:15:25;3.87;;;3.57;;
11386;SDS011;5748;53.102;8.456;2024-02-26T14:17:53;4.17;;;3.77;;
11386;SDS011;5748;53.102;8.456;2024-02-26T14:20:23;4.13;;;3.73;;
11386;SDS011;5748;53.102;8.456;2024-02-26T14:22:51;3.90;;;3.60;;
11386;SDS011;5748;53.102;8.456;2024-02-26T14:25:18;3.43;;;3.13;;
11386;SDS011;5748;53.102;8.456;2024-02-26T14:27:45;3.70;;;3.40;;
11386;SDS011;5748;53.102;8.456;2024-02-26T14:30:13;3.50;;;3.20;;
11386;SDS011;5748;53.102;8.456;2024-02-26T14:32:41;3.27;;;3.00;;
11386;SDS011;5748;53.102;8.456;2024-02-26T14:35:08;3.77;;;3.37;;
11386;SDS011;5748;53.102;8.456;2024-02-26T14:37:37;3.37;;;3.07;;
11386;SDS011;5748;53.102;8.456;2024-02-26T14:40:05;3.30;;;3.03;;
11386;SDS011;5748;53.102;8.456;2024-02-26T14:42:34;3.40;;;3.10;;
11386;SDS011;5748;53.102;8.456;2024-02-26T14:45:01;3.80;;;3.50;;
11386;SDS011;5748;53.102;8.456;2024-02-26T14:47:33;3.37;;;3.07;;
11386;SDS011;5748;53.102;8.456;2024-02-26T14:50:00;4.10;;;3.63;;
11386;SDS011;5748;53.102;8.456;2024-02-26T14:52:28;3.70;;;3.40;;
11386;SDS011;5748;53.102;8.456;2024-02-26T14:54:56;3.73;;;3.43;;
11386;SDS011;5748;53.102;8.456;2024-02-26T14:57:23;3.70;;;3.40;;
11386;SDS011;5748;53.102;8.456;2024-02-26T14:59:51;3.37;;;3.07;;
11386;SDS011;5748;53.102;8.456;2024-02-26T15:02:18;3.50;;;3.20;;
11386;SDS011;5748;53.102;8.456;2024-02-26T15:04:45;3.23;;;2.93;;
11386;SDS011;5748;53.102;8.456;2024-02-26T15:07:13;4.23;;;3.90;;